sensor_id;sensor_type;location;lat;lon;timestamp;P1;durP1;ratioP1;P2;durP2;ratioP2
51556;SDS011;38766;53.194;5.532;2023-02-28T00:01:04;9.40;;;2.38;;
51556;SDS011;38766;53.194;5.532;2023-02-28T00:03:29;4.28;;;2.33;;
51556;SDS011;38766;53.194;5.532;2023-02-28T00:05:55;7.75;;;2.35;;
51556;SDS011;38766;53.194;5.532;2023-02-28T00:08:21;9.05;;;2.45;;
51556;SDS011;38766;53.194;5.532;2023-02-28T00:10:46;8.73;;;2.28;;
51556;SDS011;38766;53.194;5.532;2023-02-28T00:13:12;10.52;;;2.08;;
51556;SDS011;38766;53.194;5.532;2023-02-28T00:15:38;9.80;;;2.55;;
51556;SDS011;38766;53.194;5.532;2023-02-28T00:18:06;8.13;;;2.50;;
51556;SDS011;38766;53.194;5.532;2023-02-28T00:20:32;14.50;;;2.90;;
51556;SDS011;38766;53.194;5.532;2023-02-28T00:23:00;5.85;;;2.30;;
51556;SDS011;38766;53.194;5.532;2023-02-28T00:25:26;7.50;;;2.30;;
51556;SDS011;38766;53.194;5.532;2023-02-28T00:27:52;9.18;;;2.78;;
51556;SDS011;38766;53.194;5.532;2023-02-28T00:30:18;8.18;;;2.40;;
51556;SDS011;38766;53.194;5.532;2023-02-28T00:32:45;7.47;;;2.05;;
51556;SDS011;38766;53.194;5.532;2023-02-28T00:35:11;6.22;;;2.60;;
51556;SDS011;38766;53.194;5.532;2023-02-28T00:37:37;8.10;;;2.22;;
51556;SDS011;38766;53.194;5.532;2023-02-28T00:40:04;8.95;;;2.55;;
51556;SDS011;38766;53.194;5.532;2023-02-28T00:42:31;8.32;;;2.20;;
51556;SDS011;38766;53.194;5.532;2023-02-28T00:44:57;5.43;;;2.00;;
51556;SDS011;38766;53.194;5.532;2023-02-28T00:47:23;9.27;;;2.35;;
51556;SDS011;38766;53.194;5.532;2023-02-28T00:49:48;5.55;;;1.90;;
51556;SDS011;38766;53.194;5.532;2023-02-28T00:52:14;7.60;;;2.72;;
51556;SDS011;38766;53.194;5.532;2023-02-28T00:54:40;10.35;;;2.35;;
51556;SDS011;38766;53.194;5.532;2023-02-28T00:57:05;7.45;;;2.35;;
51556;SDS011;38766;53.194;5.532;2023-02-28T00:59:31;6.80;;;2.17;;
51556;SDS011;38766;53.194;5.532;2023-02-28T01:01:56;8.20;;;2.25;;
51556;SDS011;38766;53.194;5.532;2023-02-28T01:04:22;8.73;;;2.20;;
51556;SDS011;38766;53.194;5.532;2023-02-28T01:06:48;10.65;;;2.17;;
51556;SDS011;38766;53.194;5.532;2023-02-28T01:09:13;10.25;;;2.45;;
51556;SDS011;38766;53.194;5.532;2023-02-28T01:11:39;4.93;;;2.03;;
51556;SDS011;38766;53.194;5.532;2023-02-28T01:14:06;5.18;;;1.95;;
51556;SDS011;38766;53.194;5.532;2023-02-28T01:16:33;8.15;;;2.33;;
51556;SDS011;38766;53.194;5.532;2023-02-28T01:18:59;9.95;;;2.65;;
51556;SDS011;38766;53.194;5.532;2023-02-28T01:21:24;5.18;;;1.80;;
51556;SDS011;38766;53.194;5.532;2023-02-28T01:23:50;4.13;;;2.10;;
51556;SDS011;38766;53.194;5.532;2023-02-28T01:26:17;6.78;;;1.90;;
51556;SDS011;38766;53.194;5.532;2023-02-28T01:28:45;10.13;;;2.20;;
51556;SDS011;38766;53.194;5.532;2023-02-28T01:31:11;9.32;;;2.63;;
51556;SDS011;38766;53.194;5.532;2023-02-28T01:33:37;13.90;;;2.20;;
51556;SDS011;38766;53.194;5.532;2023-02-28T01:36:17;5.93;;;2.28;;
51556;SDS011;38766;53.194;5.532;2023-02-28T01:38:45;4.60;;;1.80;;
51556;SDS011;38766;53.194;5.532;2023-02-28T01:41:16;5.72;;;1.77;;
51556;SDS011;38766;53.194;5.532;2023-02-28T01:46:37;8.63;;;1.88;;
51556;SDS011;38766;53.194;5.532;2023-02-28T01:49:13;10.23;;;2.40;;
51556;SDS011;38766;53.194;5.532;2023-02-28T01:51:51;7.90;;;2.55;;
51556;SDS011;38766;53.194;5.532;2023-02-28T01:54:41;15.68;;;2.03;;
51556;SDS011;38766;53.194;5.532;2023-02-28T01:57:10;5.40;;;1.77;;
51556;SDS011;38766;53.194;5.532;2023-02-28T01:59:43;7.07;;;2.20;;
51556;SDS011;38766;53.194;5.532;2023-02-28T02:02:16;5.43;;;2.00;;
51556;SDS011;38766;53.194;5.532;2023-02-28T02:04:54;6.05;;;1.50;;
51556;SDS011;38766;53.194;5.532;2023-02-28T02:07:24;5.07;;;1.88;;
51556;SDS011;38766;53.194;5.532;2023-02-28T02:10:05;6.85;;;1.77;;
51556;SDS011;38766;53.194;5.532;2023-02-28T02:15:19;4.68;;;2.05;;
51556;SDS011;38766;53.194;5.532;2023-02-28T02:25:45;8.25;;;1.95;;
51556;SDS011;38766;53.194;5.532;2023-02-28T02:36:46;4.82;;;1.40;;
51556;SDS011;38766;53.194;5.532;2023-02-28T02:42:20;7.72;;;1.60;;
51556;SDS011;38766;53.194;5.532;2023-02-28T02:44:51;4.68;;;2.40;;
51556;SDS011;38766;53.194;5.532;2023-02-28T02:47:26;5.70;;;1.65;;
51556;SDS011;38766;53.194;5.532;2023-02-28T02:49:55;4.72;;;1.80;;
51556;SDS011;38766;53.194;5.532;2023-02-28T02:52:25;6.45;;;1.95;;
51556;SDS011;38766;53.194;5.532;2023-02-28T02:55:00;6.30;;;2.00;;
51556;SDS011;38766;53.194;5.532;2023-02-28T02:57:33;5.50;;;1.83;;
51556;SDS011;38766;53.194;5.532;2023-02-28T03:00:02;4.72;;;2.20;;
51556;SDS011;38766;53.194;5.532;2023-02-28T03:02:30;8.93;;;2.22;;
51556;SDS011;38766;53.194;5.532;2023-02-28T03:04:59;7.80;;;2.15;;
51556;SDS011;38766;53.194;5.532;2023-02-28T03:07:29;7.40;;;2.58;;
51556;SDS011;38766;53.194;5.532;2023-02-28T03:09:55;5.47;;;2.55;;
51556;SDS011;38766;53.194;5.532;2023-02-28T03:13:00;6.22;;;2.58;;
51556;SDS011;38766;53.194;5.532;2023-02-28T03:15:19;6.65;;;2.58;;
51556;SDS011;38766;53.194;5.532;2023-02-28T03:20:40;5.20;;;2.40;;
51556;SDS011;38766;53.194;5.532;2023-02-28T03:28:27;8.35;;;2.50;;
51556;SDS011;38766;53.194;5.532;2023-02-28T03:31:08;6.22;;;2.70;;
51556;SDS011;38766;53.194;5.532;2023-02-28T03:33:42;7.72;;;2.33;;
51556;SDS011;38766;53.194;5.532;2023-02-28T03:36:15;4.05;;;2.20;;
51556;SDS011;38766;53.194;5.532;2023-02-28T03:38:46;6.10;;;2.08;;
51556;SDS011;38766;53.194;5.532;2023-02-28T03:41:41;6.60;;;2.05;;
51556;SDS011;38766;53.194;5.532;2023-02-28T03:44:14;6.32;;;2.35;;
51556;SDS011;38766;53.194;5.532;2023-02-28T03:46:52;7.03;;;2.15;;
51556;SDS011;38766;53.194;5.532;2023-02-28T03:49:24;4.38;;;1.83;;
51556;SDS011;38766;53.194;5.532;2023-02-28T03:51:54;5.68;;;1.90;;
51556;SDS011;38766;53.194;5.532;2023-02-28T03:54:26;4.72;;;1.85;;
51556;SDS011;38766;53.194;5.532;2023-02-28T03:56:57;7.97;;;1.65;;
51556;SDS011;38766;53.194;5.532;2023-02-28T03:59:28;6.63;;;1.40;;
51556;SDS011;38766;53.194;5.532;2023-02-28T04:01:59;9.20;;;1.88;;
51556;SDS011;38766;53.194;5.532;2023-02-28T04:04:29;5.28;;;2.47;;
51556;SDS011;38766;53.194;5.532;2023-02-28T04:07:01;7.20;;;1.55;;
51556;SDS011;38766;53.194;5.532;2023-02-28T04:09:32;7.53;;;1.40;;
51556;SDS011;38766;53.194;5.532;2023-02-28T04:11:58;3.25;;;1.40;;
51556;SDS011;38766;53.194;5.532;2023-02-28T04:14:24;6.32;;;1.30;;
51556;SDS011;38766;53.194;5.532;2023-02-28T04:16:50;4.82;;;1.45;;
51556;SDS011;38766;53.194;5.532;2023-02-28T04:19:18;3.83;;;1.30;;
51556;SDS011;38766;53.194;5.532;2023-02-28T04:21:45;3.38;;;1.27;;
51556;SDS011;38766;53.194;5.532;2023-02-28T04:24:13;2.33;;;1.33;;
51556;SDS011;38766;53.194;5.532;2023-02-28T04:26:42;3.83;;;1.48;;
51556;SDS011;38766;53.194;5.532;2023-02-28T04:29:11;3.22;;;1.30;;
51556;SDS011;38766;53.194;5.532;2023-02-28T04:31:39;3.55;;;1.27;;
51556;SDS011;38766;53.194;5.532;2023-02-28T04:34:05;5.68;;;1.35;;
51556;SDS011;38766;53.194;5.532;2023-02-28T04:36:31;4.85;;;1.50;;
51556;SDS011;38766;53.194;5.532;2023-02-28T04:38:56;7.68;;;1.70;;
51556;SDS011;38766;53.194;5.532;2023-02-28T04:41:22;3.55;;;1.48;;
51556;SDS011;38766;53.194;5.532;2023-02-28T04:43:48;4.32;;;1.40;;
51556;SDS011;38766;53.194;5.532;2023-02-28T04:46:15;6.78;;;1.50;;
51556;SDS011;38766;53.194;5.532;2023-02-28T04:48:42;10.30;;;1.50;;
51556;SDS011;38766;53.194;5.532;2023-02-28T04:51:10;8.45;;;1.85;;
51556;SDS011;38766;53.194;5.532;2023-02-28T04:53:37;4.55;;;1.50;;
51556;SDS011;38766;53.194;5.532;2023-02-28T04:56:04;3.85;;;1.30;;
51556;SDS011;38766;53.194;5.532;2023-02-28T04:58:31;6.53;;;1.65;;
51556;SDS011;38766;53.194;5.532;2023-02-28T05:01:04;10.85;;;1.67;;
51556;SDS011;38766;53.194;5.532;2023-02-28T05:03:40;5.60;;;2.05;;
51556;SDS011;38766;53.194;5.532;2023-02-28T05:06:08;6.30;;;1.90;;
51556;SDS011;38766;53.194;5.532;2023-02-28T05:08:34;8.30;;;1.88;;
51556;SDS011;38766;53.194;5.532;2023-02-28T05:11:00;12.05;;;1.90;;
51556;SDS011;38766;53.194;5.532;2023-02-28T05:13:26;7.47;;;1.75;;
51556;SDS011;38766;53.194;5.532;2023-02-28T05:15:52;5.13;;;1.63;;
51556;SDS011;38766;53.194;5.532;2023-02-28T05:18:18;10.00;;;1.67;;
51556;SDS011;38766;53.194;5.532;2023-02-28T05:20:44;8.70;;;2.35;;
51556;SDS011;38766;53.194;5.532;2023-02-28T05:23:13;6.47;;;1.75;;
51556;SDS011;38766;53.194;5.532;2023-02-28T05:25:40;7.57;;;1.70;;
51556;SDS011;38766;53.194;5.532;2023-02-28T05:28:06;6.45;;;1.80;;
51556;SDS011;38766;53.194;5.532;2023-02-28T05:30:32;8.88;;;1.90;;
51556;SDS011;38766;53.194;5.532;2023-02-28T05:32:58;6.88;;;1.50;;
51556;SDS011;38766;53.194;5.532;2023-02-28T05:35:24;8.57;;;1.80;;
51556;SDS011;38766;53.194;5.532;2023-02-28T05:37:50;3.25;;;1.55;;
51556;SDS011;38766;53.194;5.532;2023-02-28T05:40:15;2.78;;;1.35;;
51556;SDS011;38766;53.194;5.532;2023-02-28T05:42:41;8.15;;;1.65;;
51556;SDS011;38766;53.194;5.532;2023-02-28T05:45:07;5.13;;;1.90;;
51556;SDS011;38766;53.194;5.532;2023-02-28T05:47:34;11.20;;;2.30;;
51556;SDS011;38766;53.194;5.532;2023-02-28T05:50:00;4.57;;;1.48;;
51556;SDS011;38766;53.194;5.532;2023-02-28T05:52:26;11.40;;;1.40;;
51556;SDS011;38766;53.194;5.532;2023-02-28T05:54:53;10.73;;;1.85;;
51556;SDS011;38766;53.194;5.532;2023-02-28T05:57:18;6.55;;;1.83;;
51556;SDS011;38766;53.194;5.532;2023-02-28T05:59:44;7.30;;;1.83;;
51556;SDS011;38766;53.194;5.532;2023-02-28T06:02:13;5.65;;;1.70;;
51556;SDS011;38766;53.194;5.532;2023-02-28T06:04:40;8.88;;;2.15;;
51556;SDS011;38766;53.194;5.532;2023-02-28T06:07:06;9.48;;;2.03;;
51556;SDS011;38766;53.194;5.532;2023-02-28T06:09:33;6.68;;;2.53;;
51556;SDS011;38766;53.194;5.532;2023-02-28T06:11:59;6.65;;;1.70;;
51556;SDS011;38766;53.194;5.532;2023-02-28T06:14:27;7.72;;;2.50;;
51556;SDS011;38766;53.194;5.532;2023-02-28T06:16:53;7.03;;;2.05;;
51556;SDS011;38766;53.194;5.532;2023-02-28T06:19:19;7.60;;;1.77;;
51556;SDS011;38766;53.194;5.532;2023-02-28T06:21:44;7.10;;;2.10;;
51556;SDS011;38766;53.194;5.532;2023-02-28T06:24:13;7.05;;;2.00;;
51556;SDS011;38766;53.194;5.532;2023-02-28T06:26:39;8.48;;;2.83;;
51556;SDS011;38766;53.194;5.532;2023-02-28T06:29:04;7.45;;;2.70;;
51556;SDS011;38766;53.194;5.532;2023-02-28T06:31:30;6.20;;;2.28;;
51556;SDS011;38766;53.194;5.532;2023-02-28T06:33:56;7.28;;;2.30;;
51556;SDS011;38766;53.194;5.532;2023-02-28T06:36:21;6.20;;;1.70;;
51556;SDS011;38766;53.194;5.532;2023-02-28T06:38:47;7.07;;;2.35;;
51556;SDS011;38766;53.194;5.532;2023-02-28T06:41:19;9.65;;;2.35;;
51556;SDS011;38766;53.194;5.532;2023-02-28T06:43:46;8.30;;;1.92;;
51556;SDS011;38766;53.194;5.532;2023-02-28T06:46:13;14.32;;;2.38;;
51556;SDS011;38766;53.194;5.532;2023-02-28T06:48:39;6.32;;;1.90;;
51556;SDS011;38766;53.194;5.532;2023-02-28T06:51:09;7.85;;;1.95;;
51556;SDS011;38766;53.194;5.532;2023-02-28T06:53:38;7.35;;;1.70;;
51556;SDS011;38766;53.194;5.532;2023-02-28T06:56:06;9.40;;;2.45;;
51556;SDS011;38766;53.194;5.532;2023-02-28T06:58:34;7.25;;;1.85;;
51556;SDS011;38766;53.194;5.532;2023-02-28T07:01:00;8.68;;;1.83;;
51556;SDS011;38766;53.194;5.532;2023-02-28T07:03:26;6.50;;;1.83;;
51556;SDS011;38766;53.194;5.532;2023-02-28T07:05:52;10.20;;;2.20;;
51556;SDS011;38766;53.194;5.532;2023-02-28T07:08:18;7.90;;;2.03;;
51556;SDS011;38766;53.194;5.532;2023-02-28T07:10:43;5.70;;;1.85;;
51556;SDS011;38766;53.194;5.532;2023-02-28T07:13:09;8.50;;;2.38;;
51556;SDS011;38766;53.194;5.532;2023-02-28T07:15:36;18.13;;;2.72;;
51556;SDS011;38766;53.194;5.532;2023-02-28T07:18:02;9.57;;;2.15;;
51556;SDS011;38766;53.194;5.532;2023-02-28T07:20:28;6.68;;;2.90;;
51556;SDS011;38766;53.194;5.532;2023-02-28T07:22:54;9.50;;;3.67;;
51556;SDS011;38766;53.194;5.532;2023-02-28T07:25:23;6.95;;;4.75;;
51556;SDS011;38766;53.194;5.532;2023-02-28T07:27:49;9.18;;;5.95;;
51556;SDS011;38766;53.194;5.532;2023-02-28T07:30:15;10.80;;;6.10;;
51556;SDS011;38766;53.194;5.532;2023-02-28T07:32:41;8.18;;;5.07;;
51556;SDS011;38766;53.194;5.532;2023-02-28T07:35:07;10.82;;;5.95;;
51556;SDS011;38766;53.194;5.532;2023-02-28T07:37:33;8.02;;;5.72;;
51556;SDS011;38766;53.194;5.532;2023-02-28T07:40:05;10.13;;;6.18;;
51556;SDS011;38766;53.194;5.532;2023-02-28T07:42:33;10.65;;;6.70;;
51556;SDS011;38766;53.194;5.532;2023-02-28T07:45:03;11.70;;;7.30;;
51556;SDS011;38766;53.194;5.532;2023-02-28T07:47:29;9.25;;;6.93;;
51556;SDS011;38766;53.194;5.532;2023-02-28T07:49:56;11.73;;;7.85;;
51556;SDS011;38766;53.194;5.532;2023-02-28T07:52:21;17.27;;;9.18;;
51556;SDS011;38766;53.194;5.532;2023-02-28T07:54:48;12.05;;;8.23;;
51556;SDS011;38766;53.194;5.532;2023-02-28T07:57:17;13.20;;;8.23;;
51556;SDS011;38766;53.194;5.532;2023-02-28T07:59:43;12.23;;;9.02;;
51556;SDS011;38766;53.194;5.532;2023-02-28T08:02:13;11.70;;;8.90;;
51556;SDS011;38766;53.194;5.532;2023-02-28T08:04:39;12.32;;;8.80;;
51556;SDS011;38766;53.194;5.532;2023-02-28T08:07:05;13.93;;;9.20;;
51556;SDS011;38766;53.194;5.532;2023-02-28T08:09:31;10.60;;;7.97;;
51556;SDS011;38766;53.194;5.532;2023-02-28T08:11:57;9.98;;;8.30;;
51556;SDS011;38766;53.194;5.532;2023-02-28T08:14:22;12.57;;;8.95;;
51556;SDS011;38766;53.194;5.532;2023-02-28T08:16:48;12.20;;;8.75;;
51556;SDS011;38766;53.194;5.532;2023-02-28T08:19:14;12.10;;;8.70;;
51556;SDS011;38766;53.194;5.532;2023-02-28T08:21:39;10.90;;;7.97;;
51556;SDS011;38766;53.194;5.532;2023-02-28T08:24:05;14.02;;;8.98;;
51556;SDS011;38766;53.194;5.532;2023-02-28T08:26:31;10.48;;;7.72;;
51556;SDS011;38766;53.194;5.532;2023-02-28T08:28:57;12.60;;;8.48;;
51556;SDS011;38766;53.194;5.532;2023-02-28T08:31:22;12.45;;;8.35;;
51556;SDS011;38766;53.194;5.532;2023-02-28T08:33:48;10.73;;;8.55;;
51556;SDS011;38766;53.194;5.532;2023-02-28T08:36:16;11.00;;;8.50;;
51556;SDS011;38766;53.194;5.532;2023-02-28T08:38:42;9.60;;;7.88;;
51556;SDS011;38766;53.194;5.532;2023-02-28T08:41:10;11.30;;;8.10;;
51556;SDS011;38766;53.194;5.532;2023-02-28T08:43:37;10.95;;;7.93;;
51556;SDS011;38766;53.194;5.532;2023-02-28T08:46:04;8.82;;;7.30;;
51556;SDS011;38766;53.194;5.532;2023-02-28T08:48:30;9.52;;;7.38;;
51556;SDS011;38766;53.194;5.532;2023-02-28T08:51:01;12.98;;;7.45;;
51556;SDS011;38766;53.194;5.532;2023-02-28T08:53:37;9.45;;;7.47;;
51556;SDS011;38766;53.194;5.532;2023-02-28T08:56:05;10.23;;;7.63;;
51556;SDS011;38766;53.194;5.532;2023-02-28T08:58:33;11.68;;;8.88;;
51556;SDS011;38766;53.194;5.532;2023-02-28T09:01:00;17.50;;;9.02;;
51556;SDS011;38766;53.194;5.532;2023-02-28T09:03:31;13.13;;;8.90;;
51556;SDS011;38766;53.194;5.532;2023-02-28T09:05:58;14.02;;;10.52;;
51556;SDS011;38766;53.194;5.532;2023-02-28T09:08:25;12.88;;;9.27;;
51556;SDS011;38766;53.194;5.532;2023-02-28T09:10:52;12.77;;;10.00;;
51556;SDS011;38766;53.194;5.532;2023-02-28T09:13:19;14.88;;;10.52;;
51556;SDS011;38766;53.194;5.532;2023-02-28T09:15:45;17.65;;;11.45;;
51556;SDS011;38766;53.194;5.532;2023-02-28T09:18:11;18.40;;;11.27;;
51556;SDS011;38766;53.194;5.532;2023-02-28T09:20:38;15.77;;;11.10;;
51556;SDS011;38766;53.194;5.532;2023-02-28T09:23:05;15.05;;;9.75;;
51556;SDS011;38766;53.194;5.532;2023-02-28T09:25:31;16.25;;;10.85;;
51556;SDS011;38766;53.194;5.532;2023-02-28T09:28:04;17.08;;;11.52;;
51556;SDS011;38766;53.194;5.532;2023-02-28T09:30:30;17.25;;;11.38;;
51556;SDS011;38766;53.194;5.532;2023-02-28T09:32:56;15.57;;;11.02;;
51556;SDS011;38766;53.194;5.532;2023-02-28T09:35:22;17.15;;;12.32;;
51556;SDS011;38766;53.194;5.532;2023-02-28T09:37:49;16.63;;;11.73;;
51556;SDS011;38766;53.194;5.532;2023-02-28T09:40:17;17.23;;;11.27;;
51556;SDS011;38766;53.194;5.532;2023-02-28T09:42:48;20.08;;;11.45;;
51556;SDS011;38766;53.194;5.532;2023-02-28T09:45:22;14.88;;;11.23;;
51556;SDS011;38766;53.194;5.532;2023-02-28T09:47:58;15.98;;;10.95;;
51556;SDS011;38766;53.194;5.532;2023-02-28T09:50:38;14.68;;;9.48;;
51556;SDS011;38766;53.194;5.532;2023-02-28T09:53:26;13.77;;;9.57;;
51556;SDS011;38766;53.194;5.532;2023-02-28T09:55:59;11.98;;;8.63;;
51556;SDS011;38766;53.194;5.532;2023-02-28T09:58:34;12.05;;;8.80;;
51556;SDS011;38766;53.194;5.532;2023-02-28T10:01:05;10.27;;;7.88;;
51556;SDS011;38766;53.194;5.532;2023-02-28T10:03:42;11.80;;;7.87;;
51556;SDS011;38766;53.194;5.532;2023-02-28T10:06:19;9.38;;;7.18;;
51556;SDS011;38766;53.194;5.532;2023-02-28T10:11:14;11.65;;;8.15;;
51556;SDS011;38766;53.194;5.532;2023-02-28T10:16:47;11.32;;;7.60;;
51556;SDS011;38766;53.194;5.532;2023-02-28T10:27:00;8.25;;;5.95;;
51556;SDS011;38766;53.194;5.532;2023-02-28T10:29:31;9.35;;;5.97;;
51556;SDS011;38766;53.194;5.532;2023-02-28T10:31:58;8.93;;;6.07;;
51556;SDS011;38766;53.194;5.532;2023-02-28T10:34:27;8.68;;;6.53;;
51556;SDS011;38766;53.194;5.532;2023-02-28T10:36:52;8.68;;;6.20;;
51556;SDS011;38766;53.194;5.532;2023-02-28T10:39:35;10.27;;;6.65;;
51556;SDS011;38766;53.194;5.532;2023-02-28T10:42:04;9.60;;;6.80;;
51556;SDS011;38766;53.194;5.532;2023-02-28T10:44:43;8.52;;;6.28;;
51556;SDS011;38766;53.194;5.532;2023-02-28T10:47:13;9.18;;;6.45;;
51556;SDS011;38766;53.194;5.532;2023-02-28T10:49:46;10.20;;;6.75;;
51556;SDS011;38766;53.194;5.532;2023-02-28T10:52:14;12.75;;;7.50;;
51556;SDS011;38766;53.194;5.532;2023-02-28T10:55:15;10.80;;;6.95;;
51556;SDS011;38766;53.194;5.532;2023-02-28T10:57:45;10.38;;;7.20;;
51556;SDS011;38766;53.194;5.532;2023-02-28T11:00:22;10.63;;;6.57;;
51556;SDS011;38766;53.194;5.532;2023-02-28T11:02:50;8.93;;;6.72;;
51556;SDS011;38766;53.194;5.532;2023-02-28T11:05:30;9.55;;;6.88;;
51556;SDS011;38766;53.194;5.532;2023-02-28T11:08:06;11.45;;;6.45;;
51556;SDS011;38766;53.194;5.532;2023-02-28T11:10:38;8.50;;;6.03;;
51556;SDS011;38766;53.194;5.532;2023-02-28T11:13:14;8.55;;;6.22;;
51556;SDS011;38766;53.194;5.532;2023-02-28T11:15:48;7.95;;;5.72;;
51556;SDS011;38766;53.194;5.532;2023-02-28T11:18:20;12.00;;;5.87;;
51556;SDS011;38766;53.194;5.532;2023-02-28T11:20:51;9.30;;;5.95;;
51556;SDS011;38766;53.194;5.532;2023-02-28T11:23:20;7.25;;;4.90;;
51556;SDS011;38766;53.194;5.532;2023-02-28T11:25:52;5.97;;;5.00;;
51556;SDS011;38766;53.194;5.532;2023-02-28T11:28:32;5.03;;;4.20;;
51556;SDS011;38766;53.194;5.532;2023-02-28T11:31:02;7.95;;;4.45;;
51556;SDS011;38766;53.194;5.532;2023-02-28T11:36:20;7.35;;;4.38;;
51556;SDS011;38766;53.194;5.532;2023-02-28T11:38:55;7.80;;;4.55;;
51556;SDS011;38766;53.194;5.532;2023-02-28T11:57:40;5.25;;;3.78;;
51556;SDS011;38766;53.194;5.532;2023-02-28T12:05:56;4.63;;;3.03;;
51556;SDS011;38766;53.194;5.532;2023-02-28T12:11:38;6.38;;;3.10;;
51556;SDS011;38766;53.194;5.532;2023-02-28T12:22:31;4.40;;;3.25;;
51556;SDS011;38766;53.194;5.532;2023-02-28T12:27:33;6.38;;;2.90;;
51556;SDS011;38766;53.194;5.532;2023-02-28T12:30:23;3.92;;;3.13;;
51556;SDS011;38766;53.194;5.532;2023-02-28T12:33:03;5.70;;;3.63;;
51556;SDS011;38766;53.194;5.532;2023-02-28T12:35:32;3.85;;;3.00;;
51556;SDS011;38766;53.194;5.532;2023-02-28T12:38:04;5.68;;;3.05;;
51556;SDS011;38766;53.194;5.532;2023-02-28T12:43:45;3.88;;;3.17;;
51556;SDS011;38766;53.194;5.532;2023-02-28T12:46:17;3.85;;;3.17;;
51556;SDS011;38766;53.194;5.532;2023-02-28T12:48:49;3.75;;;3.05;;
51556;SDS011;38766;53.194;5.532;2023-02-28T12:51:21;4.50;;;2.97;;
51556;SDS011;38766;53.194;5.532;2023-02-28T12:57:03;4.53;;;3.20;;
51556;SDS011;38766;53.194;5.532;2023-02-28T13:10:02;9.30;;;5.28;;
51556;SDS011;38766;53.194;5.532;2023-02-28T13:12:31;8.95;;;4.75;;
51556;SDS011;38766;53.194;5.532;2023-02-28T13:15:05;13.82;;;5.18;;
51556;SDS011;38766;53.194;5.532;2023-02-28T13:17:53;6.22;;;4.78;;
51556;SDS011;38766;53.194;5.532;2023-02-28T13:20:24;6.15;;;4.85;;
51556;SDS011;38766;53.194;5.532;2023-02-28T13:22:52;7.55;;;4.82;;
51556;SDS011;38766;53.194;5.532;2023-02-28T13:28:10;7.25;;;4.85;;
51556;SDS011;38766;53.194;5.532;2023-02-28T13:33:27;6.43;;;4.32;;
51556;SDS011;38766;53.194;5.532;2023-02-28T13:38:42;7.03;;;4.72;;
51556;SDS011;38766;53.194;5.532;2023-02-28T13:46:32;7.22;;;4.35;;
51556;SDS011;38766;53.194;5.532;2023-02-28T13:49:25;6.55;;;4.65;;
51556;SDS011;38766;53.194;5.532;2023-02-28T13:51:55;6.53;;;4.40;;
51556;SDS011;38766;53.194;5.532;2023-02-28T13:57:14;5.15;;;3.78;;
51556;SDS011;38766;53.194;5.532;2023-02-28T14:03:16;10.15;;;4.70;;
51556;SDS011;38766;53.194;5.532;2023-02-28T14:09:06;9.07;;;4.85;;
51556;SDS011;38766;53.194;5.532;2023-02-28T14:11:57;6.68;;;4.47;;
51556;SDS011;38766;53.194;5.532;2023-02-28T14:15:01;5.90;;;4.53;;
51556;SDS011;38766;53.194;5.532;2023-02-28T14:17:27;5.63;;;3.85;;
51556;SDS011;38766;53.194;5.532;2023-02-28T14:19:53;5.57;;;4.03;;
51556;SDS011;38766;53.194;5.532;2023-02-28T14:25:34;6.30;;;3.95;;
51556;SDS011;38766;53.194;5.532;2023-02-28T14:28:18;7.07;;;3.63;;
51556;SDS011;38766;53.194;5.532;2023-02-28T14:31:15;5.75;;;4.45;;
51556;SDS011;38766;53.194;5.532;2023-02-28T14:34:43;5.68;;;4.00;;
51556;SDS011;38766;53.194;5.532;2023-02-28T14:36:48;5.07;;;3.85;;
51556;SDS011;38766;53.194;5.532;2023-02-28T14:39:19;5.10;;;3.80;;
51556;SDS011;38766;53.194;5.532;2023-02-28T14:41:47;6.25;;;3.92;;
51556;SDS011;38766;53.194;5.532;2023-02-28T14:46:41;5.45;;;3.88;;
51556;SDS011;38766;53.194;5.532;2023-02-28T14:52:03;6.13;;;4.20;;
51556;SDS011;38766;53.194;5.532;2023-02-28T14:54:31;4.80;;;3.65;;
51556;SDS011;38766;53.194;5.532;2023-02-28T14:56:57;5.05;;;3.60;;
51556;SDS011;38766;53.194;5.532;2023-02-28T14:59:27;5.28;;;3.90;;
51556;SDS011;38766;53.194;5.532;2023-02-28T15:02:14;5.22;;;3.92;;
51556;SDS011;38766;53.194;5.532;2023-02-28T15:04:54;7.13;;;4.03;;
51556;SDS011;38766;53.194;5.532;2023-02-28T15:07:24;7.47;;;4.05;;
51556;SDS011;38766;53.194;5.532;2023-02-28T15:12:56;6.13;;;4.13;;
51556;SDS011;38766;53.194;5.532;2023-02-28T15:18:05;5.30;;;4.00;;
51556;SDS011;38766;53.194;5.532;2023-02-28T15:20:32;4.90;;;3.75;;
51556;SDS011;38766;53.194;5.532;2023-02-28T15:23:00;10.45;;;4.28;;
51556;SDS011;38766;53.194;5.532;2023-02-28T15:25:27;5.55;;;3.90;;
51556;SDS011;38766;53.194;5.532;2023-02-28T15:27:53;4.93;;;3.20;;
51556;SDS011;38766;53.194;5.532;2023-02-28T15:30:21;8.70;;;3.92;;
51556;SDS011;38766;53.194;5.532;2023-02-28T15:36:03;5.72;;;3.78;;
51556;SDS011;38766;53.194;5.532;2023-02-28T15:38:45;7.72;;;4.00;;
51556;SDS011;38766;53.194;5.532;2023-02-28T15:41:30;6.45;;;3.90;;
51556;SDS011;38766;53.194;5.532;2023-02-28T15:49:36;5.80;;;4.22;;
51556;SDS011;38766;53.194;5.532;2023-02-28T15:52:19;6.43;;;4.38;;
51556;SDS011;38766;53.194;5.532;2023-02-28T15:54:56;7.20;;;4.53;;
51556;SDS011;38766;53.194;5.532;2023-02-28T15:57:27;5.05;;;4.13;;
51556;SDS011;38766;53.194;5.532;2023-02-28T15:59:58;5.15;;;4.15;;
51556;SDS011;38766;53.194;5.532;2023-02-28T16:02:32;7.38;;;4.53;;
51556;SDS011;38766;53.194;5.532;2023-02-28T16:07:34;7.30;;;4.72;;
51556;SDS011;38766;53.194;5.532;2023-02-28T16:10:01;18.45;;;14.18;;
51556;SDS011;38766;53.194;5.532;2023-02-28T16:12:28;27.02;;;16.85;;
51556;SDS011;38766;53.194;5.532;2023-02-28T16:14:57;16.13;;;10.85;;
51556;SDS011;38766;53.194;5.532;2023-02-28T16:17:27;9.18;;;6.65;;
51556;SDS011;38766;53.194;5.532;2023-02-28T16:19:55;52.03;;;39.85;;
51556;SDS011;38766;53.194;5.532;2023-02-28T16:22:21;7.47;;;5.38;;
51556;SDS011;38766;53.194;5.532;2023-02-28T16:24:47;8.18;;;7.25;;
51556;SDS011;38766;53.194;5.532;2023-02-28T16:27:15;7.68;;;5.47;;
51556;SDS011;38766;53.194;5.532;2023-02-28T16:29:45;7.53;;;5.30;;
51556;SDS011;38766;53.194;5.532;2023-02-28T16:32:12;11.90;;;10.32;;
51556;SDS011;38766;53.194;5.532;2023-02-28T16:34:39;8.13;;;5.32;;
51556;SDS011;38766;53.194;5.532;2023-02-28T16:37:09;8.93;;;5.80;;
51556;SDS011;38766;53.194;5.532;2023-02-28T16:42:06;5.75;;;4.85;;
51556;SDS011;38766;53.194;5.532;2023-02-28T16:44:35;8.60;;;5.65;;
51556;SDS011;38766;53.194;5.532;2023-02-28T16:47:02;8.30;;;6.32;;
51556;SDS011;38766;53.194;5.532;2023-02-28T16:49:28;7.80;;;6.07;;
51556;SDS011;38766;53.194;5.532;2023-02-28T16:51:54;9.30;;;6.93;;
51556;SDS011;38766;53.194;5.532;2023-02-28T16:54:20;8.38;;;5.05;;
51556;SDS011;38766;53.194;5.532;2023-02-28T16:56:46;8.48;;;5.47;;
51556;SDS011;38766;53.194;5.532;2023-02-28T16:59:13;8.95;;;6.10;;
51556;SDS011;38766;53.194;5.532;2023-02-28T17:01:43;12.45;;;7.07;;
51556;SDS011;38766;53.194;5.532;2023-02-28T17:04:09;14.57;;;9.20;;
51556;SDS011;38766;53.194;5.532;2023-02-28T17:06:36;22.25;;;16.35;;
51556;SDS011;38766;53.194;5.532;2023-02-28T17:09:02;27.00;;;17.77;;
51556;SDS011;38766;53.194;5.532;2023-02-28T17:11:27;30.63;;;19.48;;
51556;SDS011;38766;53.194;5.532;2023-02-28T17:13:53;9.27;;;6.75;;
51556;SDS011;38766;53.194;5.532;2023-02-28T17:16:25;7.97;;;6.50;;
51556;SDS011;38766;53.194;5.532;2023-02-28T17:18:57;8.00;;;5.97;;
51556;SDS011;38766;53.194;5.532;2023-02-28T17:21:24;12.07;;;6.95;;
51556;SDS011;38766;53.194;5.532;2023-02-28T17:23:50;12.63;;;7.05;;
51556;SDS011;38766;53.194;5.532;2023-02-28T17:26:17;10.27;;;6.40;;
51556;SDS011;38766;53.194;5.532;2023-02-28T17:28:49;9.73;;;6.30;;
51556;SDS011;38766;53.194;5.532;2023-02-28T17:31:16;9.48;;;6.47;;